sensor_id;sensor_type;location;lat;lon;timestamp;P1;durP1;ratioP1;P2;durP2;ratioP2
17631;SDS011;8934;51.194;17.150;2022-11-02T00:01:29;15.15;;;13.18;;
17631;SDS011;8934;51.194;17.150;2022-11-02T00:04:22;15.90;;;13.27;;
17631;SDS011;8934;51.194;17.150;2022-11-02T00:07:12;20.48;;;13.93;;
17631;SDS011;8934;51.194;17.150;2022-11-02T00:10:00;19.10;;;14.60;;
17631;SDS011;8934;51.194;17.150;2022-11-02T00:12:48;15.27;;;13.20;;
17631;SDS011;8934;51.194;17.150;2022-11-02T00:15:37;16.07;;;13.17;;
17631;SDS011;8934;51.194;17.150;2022-11-02T00:18:25;17.05;;;13.48;;
17631;SDS011;8934;51.194;17.150;2022-11-02T00:21:13;17.20;;;13.13;;
17631;SDS011;8934;51.194;17.150;2022-11-02T00:24:05;17.57;;;13.57;;
17631;SDS011;8934;51.194;17.150;2022-11-02T00:26:55;18.05;;;12.90;;
17631;SDS011;8934;51.194;17.150;2022-11-02T00:29:43;18.63;;;14.30;;
17631;SDS011;8934;51.194;17.150;2022-11-02T00:32:30;19.85;;;15.07;;
17631;SDS011;8934;51.194;17.150;2022-11-02T00:35:18;18.07;;;14.23;;
17631;SDS011;8934;51.194;17.150;2022-11-02T00:38:06;20.00;;;14.03;;
17631;SDS011;8934;51.194;17.150;2022-11-02T00:40:55;15.73;;;13.77;;
17631;SDS011;8934;51.194;17.150;2022-11-02T00:43:43;17.03;;;12.87;;
17631;SDS011;8934;51.194;17.150;2022-11-02T00:46:30;16.50;;;13.13;;
17631;SDS011;8934;51.194;17.150;2022-11-02T00:49:18;16.07;;;12.93;;
17631;SDS011;8934;51.194;17.150;2022-11-02T00:52:06;20.20;;;14.90;;
17631;SDS011;8934;51.194;17.150;2022-11-02T00:54:54;21.10;;;16.17;;
17631;SDS011;8934;51.194;17.150;2022-11-02T02:13:29;16.33;;;12.93;;
17631;SDS011;8934;51.194;17.150;2022-11-02T02:16:17;21.57;;;14.87;;
17631;SDS011;8934;51.194;17.150;2022-11-02T02:19:26;17.63;;;13.93;;
17631;SDS011;8934;51.194;17.150;2022-11-02T02:26:01;16.20;;;13.20;;
17631;SDS011;8934;51.194;17.150;2022-11-02T02:37:40;27.25;;;16.45;;
17631;SDS011;8934;51.194;17.150;2022-11-02T07:19:46;33.10;;;22.33;;
17631;SDS011;8934;51.194;17.150;2022-11-02T07:33:46;41.93;;;28.00;;
17631;SDS011;8934;51.194;17.150;2022-11-02T07:36:34;37.83;;;26.80;;
17631;SDS011;8934;51.194;17.150;2022-11-02T07:39:22;35.53;;;25.33;;
17631;SDS011;8934;51.194;17.150;2022-11-02T07:42:11;34.40;;;24.97;;
17631;SDS011;8934;51.194;17.150;2022-11-02T07:45:01;34.97;;;23.77;;
17631;SDS011;8934;51.194;17.150;2022-11-02T07:47:48;37.33;;;25.10;;
17631;SDS011;8934;51.194;17.150;2022-11-02T07:50:38;33.50;;;24.85;;
17631;SDS011;8934;51.194;17.150;2022-11-02T07:53:25;37.10;;;25.20;;
17631;SDS011;8934;51.194;17.150;2022-11-02T07:56:13;41.47;;;25.27;;
17631;SDS011;8934;51.194;17.150;2022-11-02T07:59:01;41.78;;;25.10;;
17631;SDS011;8934;51.194;17.150;2022-11-02T08:01:48;42.53;;;24.67;;
17631;SDS011;8934;51.194;17.150;2022-11-02T08:04:36;35.70;;;24.35;;
17631;SDS011;8934;51.194;17.150;2022-11-02T08:07:31;33.85;;;23.08;;
17631;SDS011;8934;51.194;17.150;2022-11-02T08:10:18;34.08;;;21.08;;
17631;SDS011;8934;51.194;17.150;2022-11-02T08:13:10;26.17;;;19.15;;
17631;SDS011;8934;51.194;17.150;2022-11-02T08:15:59;26.20;;;18.33;;
17631;SDS011;8934;51.194;17.150;2022-11-02T13:28:00;3.22;;;2.03;;
17631;SDS011;8934;51.194;17.150;2022-11-02T13:30:52;7.15;;;2.22;;
17631;SDS011;8934;51.194;17.150;2022-11-02T13:33:42;5.07;;;2.00;;
17631;SDS011;8934;51.194;17.150;2022-11-02T13:36:36;5.03;;;2.40;;
17631;SDS011;8934;51.194;17.150;2022-11-02T13:39:27;6.80;;;2.15;;
17631;SDS011;8934;51.194;17.150;2022-11-02T13:45:36;7.93;;;2.30;;
17631;SDS011;8934;51.194;17.150;2022-11-02T13:48:39;6.93;;;2.72;;
17631;SDS011;8934;51.194;17.150;2022-11-02T13:51:41;8.82;;;3.05;;
17631;SDS011;8934;51.194;17.150;2022-11-02T13:54:31;5.57;;;2.80;;
17631;SDS011;8934;51.194;17.150;2022-11-02T13:57:26;8.13;;;3.33;;
17631;SDS011;8934;51.194;17.150;2022-11-02T14:00:27;5.90;;;2.35;;
17631;SDS011;8934;51.194;17.150;2022-11-02T14:03:21;6.43;;;2.80;;
17631;SDS011;8934;51.194;17.150;2022-11-02T14:06:12;4.32;;;2.85;;
17631;SDS011;8934;51.194;17.150;2022-11-02T14:09:04;8.65;;;3.42;;
17631;SDS011;8934;51.194;17.150;2022-11-02T14:18:40;5.35;;;2.80;;
17631;SDS011;8934;51.194;17.150;2022-11-02T14:21:38;4.93;;;2.60;;
17631;SDS011;8934;51.194;17.150;2022-11-02T14:33:39;6.47;;;2.80;;
17631;SDS011;8934;51.194;17.150;2022-11-02T14:36:50;6.93;;;2.70;;
17631;SDS011;8934;51.194;17.150;2022-11-02T14:39:51;7.03;;;3.10;;
17631;SDS011;8934;51.194;17.150;2022-11-02T14:42:57;6.57;;;2.85;;
17631;SDS011;8934;51.194;17.150;2022-11-02T14:46:11;5.65;;;2.70;;
17631;SDS011;8934;51.194;17.150;2022-11-02T14:49:14;5.43;;;2.83;;
17631;SDS011;8934;51.194;17.150;2022-11-02T15:03:40;3.13;;;2.80;;
17631;SDS011;8934;51.194;17.150;2022-11-02T15:06:29;7.63;;;3.05;;
17631;SDS011;8934;51.194;17.150;2022-11-02T15:12:42;4.25;;;2.83;;
17631;SDS011;8934;51.194;17.150;2022-11-02T15:15:31;5.10;;;2.88;;
17631;SDS011;8934;51.194;17.150;2022-11-02T15:18:21;4.63;;;3.10;;
17631;SDS011;8934;51.194;17.150;2022-11-02T15:21:23;7.07;;;4.13;;
17631;SDS011;8934;51.194;17.150;2022-11-02T15:24:13;6.85;;;4.28;;
17631;SDS011;8934;51.194;17.150;2022-11-02T15:27:04;6.60;;;4.10;;
17631;SDS011;8934;51.194;17.150;2022-11-02T15:29:57;5.70;;;3.75;;
17631;SDS011;8934;51.194;17.150;2022-11-02T15:32:48;4.57;;;3.53;;
17631;SDS011;8934;51.194;17.150;2022-11-02T15:35:45;7.00;;;4.07;;
17631;SDS011;8934;51.194;17.150;2022-11-02T15:38:36;5.75;;;4.13;;
17631;SDS011;8934;51.194;17.150;2022-11-02T15:41:27;6.38;;;3.60;;
17631;SDS011;8934;51.194;17.150;2022-11-02T15:48:20;4.55;;;4.07;;
17631;SDS011;8934;51.194;17.150;2022-11-02T15:51:20;5.03;;;4.47;;
17631;SDS011;8934;51.194;17.150;2022-11-02T15:54:17;5.43;;;3.67;;
17631;SDS011;8934;51.194;17.150;2022-11-02T15:57:15;7.78;;;3.22;;
17631;SDS011;8934;51.194;17.150;2022-11-02T16:00:13;4.40;;;3.72;;
17631;SDS011;8934;51.194;17.150;2022-11-02T16:03:04;5.30;;;3.45;;
17631;SDS011;8934;51.194;17.150;2022-11-02T16:05:55;5.30;;;3.58;;
17631;SDS011;8934;51.194;17.150;2022-11-02T16:08:50;4.93;;;3.60;;
17631;SDS011;8934;51.194;17.150;2022-11-02T16:11:38;4.68;;;3.45;;
17631;SDS011;8934;51.194;17.150;2022-11-02T16:14:28;5.95;;;3.83;;
17631;SDS011;8934;51.194;17.150;2022-11-02T16:17:17;5.33;;;3.23;;
17631;SDS011;8934;51.194;17.150;2022-11-02T16:31:22;5.00;;;3.60;;
17631;SDS011;8934;51.194;17.150;2022-11-02T16:34:17;6.65;;;3.88;;
17631;SDS011;8934;51.194;17.150;2022-11-02T16:37:08;5.15;;;3.53;;
17631;SDS011;8934;51.194;17.150;2022-11-02T16:40:00;6.20;;;4.10;;
17631;SDS011;8934;51.194;17.150;2022-11-02T16:42:49;4.45;;;4.05;;
17631;SDS011;8934;51.194;17.150;2022-11-02T16:45:39;5.30;;;4.07;;
17631;SDS011;8934;51.194;17.150;2022-11-02T16:48:29;7.82;;;4.47;;
17631;SDS011;8934;51.194;17.150;2022-11-02T16:51:18;6.03;;;4.10;;
17631;SDS011;8934;51.194;17.150;2022-11-02T16:54:16;5.82;;;4.25;;
17631;SDS011;8934;51.194;17.150;2022-11-02T16:57:14;4.47;;;3.93;;
17631;SDS011;8934;51.194;17.150;2022-11-02T17:31:31;6.60;;;3.50;;
17631;SDS011;8934;51.194;17.150;2022-11-02T17:40:08;3.95;;;3.33;;
